Time;durP1;ratioP1;P1;durP2;ratioP2;P2;SDS_P1;SDS_P2;PMS_P1;PMS_P2;Temp;Humidity;BMP_temperature;BMP_pressure;BME280_temperature;BME280_humidity;BME280_pressure;Samples;Min_cycle;Max_cycle;Signal;HPM_P1;HPM_P2
2023/11/16 00:01:07;;;;;;;0.95;0.88;;;;;;;10.83;59.78;99812.78;5307437;26;20079;-90
2023/11/16 00:03:33;;;;;;;1.10;0.62;;;;;;;10.90;59.78;99816.94;5307213;26;20098;-89
2023/11/16 00:05:58;;;;;;;1.40;0.10;;;;;;;10.93;59.79;99821.19;5306953;26;20108;-89
2023/11/16 00:08:24;;;;;;;0.00;0.00;;;;;;;10.88;59.78;99828.25;5306984;26;20056;-89
2023/11/16 00:10:49;;;;;;;0.00;0.00;;;;;;;11.01;59.80;99817.41;5307303;26;20056;-89
2023/11/16 00:13:15;;;;;;;0.00;0.00;;;;;;;10.93;59.79;99821.19;5307192;26;20370;-89
2023/11/16 00:15:45;;;;;;;0.00;0.00;;;;;;;10.94;59.79;99817.66;5306998;26;20056;-88
2023/11/16 00:18:10;;;;;;;0.00;0.00;;;;;;;10.89;59.78;99819.59;5307813;26;20112;-90
2023/11/16 00:20:38;;;;;;;0.10;0.10;;;;;;;10.99;59.79;99810.56;5307293;26;20390;-90
2023/11/16 00:23:04;;;;;;;0.00;0.00;;;;;;;11.08;59.80;99821.50;5307622;26;20064;-89
2023/11/16 00:25:32;;;;;;;0.00;0.00;;;;;;;11.30;59.81;99811.22;5307377;26;20333;-90
2023/11/16 00:27:59;;;;;;;0.00;0.00;;;;;;;11.41;59.81;99815.25;5307133;26;20471;-89
2023/11/16 00:30:24;;;;;;;0.00;0.00;;;;;;;11.44;59.80;99820.34;5307761;26;20068;-89
2023/11/16 00:32:53;;;;;;;0.00;0.00;;;;;;;11.43;59.81;99821.25;5308172;26;20360;-90
2023/11/16 00:35:18;;;;;;;0.00;0.00;;;;;;;11.42;59.81;99819.53;5308576;26;20080;-89
2023/11/16 00:37:44;;;;;;;0.00;0.00;;;;;;;11.48;59.82;99819.31;5326215;26;20405;-90
2023/11/16 00:40:10;;;;;;;0.10;0.10;;;;;;;11.43;59.81;99823.84;5307557;26;20445;-89
2023/11/16 00:42:36;;;;;;;0.00;0.00;;;;;;;11.46;59.82;99826.34;5308375;26;20060;-90
2023/11/16 00:45:06;;;;;;;0.00;0.00;;;;;;;11.48;59.82;99830.59;5308166;26;20075;-90
2023/11/16 00:48:16;;;;;;;0.00;0.00;;;;;;;11.44;59.81;99828.16;5289481;26;20057;-91
2023/11/16 00:50:44;;;;;;;;;;;;;;;11.42;59.81;99832.59;5295893;26;20421;-88
2023/11/16 00:53:25;;;;;;;0.00;0.00;;;;;;;11.41;59.81;99828.28;5308954;26;19987;-90
2023/11/16 00:55:51;;;;;;;0.75;0.55;;;;;;;11.43;59.81;99834.28;5326931;26;20068;-89
2023/11/16 00:58:19;;;;;;;0.00;0.00;;;;;;;11.40;59.81;99834.37;5308383;26;20735;-90
2023/11/16 01:00:46;;;;;;;0.30;0.30;;;;;;;11.35;59.81;99826.69;5309647;26;20052;-89
2023/11/16 01:03:11;;;;;;;0.00;0.00;;;;;;;11.30;59.80;99833.84;5308307;26;20041;-90
2023/11/16 01:05:38;;;;;;;0.00;0.00;;;;;;;11.40;59.81;99831.78;5308291;26;20157;-89
2023/11/16 01:08:04;;;;;;;0.00;0.00;;;;;;;11.39;59.81;99825.72;5308594;26;20109;-90
2023/11/16 01:10:33;;;;;;;0.00;0.00;;;;;;;11.40;59.81;99827.41;5308165;26;20048;-90
2023/11/16 01:12:58;;;;;;;0.00;0.00;;;;;;;11.32;59.81;99832.87;5308596;26;20060;-90
2023/11/16 01:15:25;;;;;;;0.00;0.00;;;;;;;11.30;59.81;99845.09;5308338;26;20364;-88
2023/11/16 01:17:51;;;;;;;0.00;0.00;;;;;;;11.26;59.80;99848.72;5307762;26;20060;-88
2023/11/16 01:20:22;;;;;;;0.00;0.00;;;;;;;11.38;59.81;99842.25;5308028;26;20060;-88
2023/11/16 01:23:01;;;;;;;0.00;0.00;;;;;;;11.35;59.80;99840.59;5327352;26;20665;-88
2023/11/16 01:25:26;;;;;;;0.00;0.00;;;;;;;11.27;59.80;99833.94;5310018;26;20071;-89
2023/11/16 01:27:57;;;;;;;0.00;0.00;;;;;;;11.25;59.81;99831.38;5289242;26;20097;-88
2023/11/16 01:30:26;;;;;;;0.00;0.00;;;;;;;11.30;59.80;99833.84;5326762;26;20048;-88
2023/11/16 01:32:52;;;;;;;0.00;0.00;;;;;;;11.24;59.80;99842.72;5289119;26;20376;-87
2023/11/16 01:35:19;;;;;;;0.05;0.05;;;;;;;11.40;59.81;99840.44;5307591;26;20154;-87
2023/11/16 01:37:49;;;;;;;0.00;0.00;;;;;;;11.11;59.79;99843.16;5307392;26;20052;-88
2023/11/16 01:40:14;;;;;;;0.00;0.00;;;;;;;11.17;59.80;99838.63;5288987;26;20072;-87
2023/11/16 01:42:39;;;;;;;0.08;0.08;;;;;;;11.05;59.79;99847.66;5324336;26;25949;-87
2023/11/16 01:45:05;;;;;;;0.00;0.00;;;;;;;11.39;59.81;99849.19;5325267;26;20052;-87
2023/11/16 01:47:31;;;;;;;0.10;0.03;;;;;;;11.26;59.80;99850.47;5345259;26;20048;-87
2023/11/16 01:49:56;;;;;;;0.00;0.00;;;;;;;11.18;59.79;99853.34;5324730;26;28748;-87
2023/11/16 01:52:22;;;;;;;0.00;0.00;;;;;;;11.08;59.79;99863.19;5306403;26;26888;-87
2023/11/16 01:54:47;;;;;;;0.00;0.00;;;;;;;11.01;59.79;99866.06;5325421;26;20068;-86
2023/11/16 01:57:12;;;;;;;0.10;0.10;;;;;;;10.96;59.79;99866.19;5325522;26;20088;-87
2023/11/16 01:59:38;;;;;;;0.00;0.00;;;;;;;11.10;59.79;99862.28;5324598;26;29485;-87
2023/11/16 02:02:05;;;;;;;0.00;0.00;;;;;;;11.01;59.79;99877.31;5307105;26;20079;-87
2023/11/16 02:04:34;;;;;;;0.00;0.00;;;;;;;11.11;59.79;99877.88;5307195;26;20064;-87
2023/11/16 02:06:59;;;;;;;0.00;0.00;;;;;;;10.99;59.79;99880.88;5307637;26;20173;-87
2023/11/16 02:09:25;;;;;;;0.00;0.00;;;;;;;10.80;59.77;99883.19;5306773;26;20052;-87
2023/11/16 02:11:50;;;;;;;0.08;0.08;;;;;;;10.83;59.78;99887.44;5306853;26;20060;-86
2023/11/16 02:14:16;;;;;;;0.00;0.00;;;;;;;10.89;59.78;99889.91;5325583;26;20119;-87
2023/11/16 02:16:41;;;;;;;1.33;0.57;;;;;;;10.94;59.79;99890.59;5325008;26;20057;-87
2023/11/16 02:19:33;;;;;;;0.00;0.00;;;;;;;10.88;59.78;99893.38;5325274;26;20057;-87
2023/11/16 02:21:59;;;;;;;0.80;0.65;;;;;;;10.81;59.77;99895.31;5341891;26;20071;-87
2023/11/16 02:24:24;;;;;;;4.37;0.85;;;;;;;10.80;59.77;99897.97;5306624;26;20108;-87
2023/11/16 02:26:51;;;;;;;0.00;0.00;;;;;;;10.87;59.78;99895.13;5306987;26;20367;-87
2023/11/16 02:29:17;;;;;;;0.00;0.00;;;;;;;10.81;59.78;99894.47;5307001;26;20417;-87
2023/11/16 02:31:42;;;;;;;0.80;0.70;;;;;;;10.81;59.77;99890.09;5325461;26;20056;-86
2023/11/16 02:34:08;;;;;;;0.20;0.20;;;;;;;10.74;59.77;99894.66;5325065;26;20108;-87
2023/11/16 02:36:33;;;;;;;0.00;0.00;;;;;;;10.74;59.77;99889.44;5324987;26;20079;-88
2023/11/16 02:38:59;;;;;;;0.00;0.00;;;;;;;10.89;59.78;99890.75;5306146;26;24247;-87
2023/11/16 02:41:25;;;;;;;0.00;0.00;;;;;;;10.88;59.78;99896.81;5307167;26;20108;-87
2023/11/16 02:43:50;;;;;;;0.00;0.00;;;;;;;10.83;59.78;99896.13;5306831;26;20079;-85
2023/11/16 02:46:17;;;;;;;0.00;0.00;;;;;;;10.82;59.77;99899.63;5324574;26;24559;-87
2023/11/16 02:48:43;;;;;;;0.00;0.00;;;;;;;10.73;59.77;99892.97;5325103;26;20387;-86
2023/11/16 02:51:08;;;;;;;0.00;0.00;;;;;;;10.76;59.77;99890.25;5306988;26;20061;-86
2023/11/16 02:53:34;;;;;;;0.00;0.00;;;;;;;10.82;59.78;99898.78;5305679;26;27385;-87
2023/11/16 02:56:03;;;;;;;0.00;0.00;;;;;;;10.82;59.78;99899.63;5306668;26;20044;-87
2023/11/16 02:58:28;;;;;;;0.00;0.00;;;;;;;10.86;59.78;99902.97;5307850;26;20104;-88
2023/11/16 03:00:54;;;;;;;0.00;0.00;;;;;;;10.73;59.77;99895.56;5306763;26;20394;-87
2023/11/16 03:03:19;;;;;;;0.00;0.00;;;;;;;10.72;59.77;99893.84;5307286;26;20116;-87
2023/11/16 03:05:45;;;;;;;0.00;0.00;;;;;;;10.66;59.77;99901.00;5325899;26;20079;-88
2023/11/16 03:08:11;;;;;;;0.00;0.00;;;;;;;10.56;59.77;99900.41;5307631;26;20068;-87
2023/11/16 03:10:37;;;;;;;0.20;0.20;;;;;;;10.48;59.76;99901.53;5307395;26;20060;-88
2023/11/16 03:13:03;;;;;;;0.00;0.00;;;;;;;10.53;59.76;99912.66;5307443;26;20061;-88
2023/11/16 03:15:28;;;;;;;0.10;0.10;;;;;;;10.57;59.76;99911.66;5307554;26;20052;-88
2023/11/16 03:17:56;;;;;;;0.00;0.00;;;;;;;10.37;59.75;99915.69;5307165;26;20094;-88
2023/11/16 03:20:23;;;;;;;0.00;0.00;;;;;;;10.58;59.77;99921.19;5307563;26;20075;-88
2023/11/16 03:22:49;;;;;;;0.10;0.10;;;;;;;10.46;59.75;99930.22;5326331;26;20428;-88
2023/11/16 03:25:14;;;;;;;0.00;0.00;;;;;;;10.41;59.75;99932.94;5307223;26;20062;-88
2023/11/16 03:27:42;;;;;;;0.00;0.00;;;;;;;10.38;59.75;99926.97;5307233;26;20441;-87
2023/11/16 03:30:07;;;;;;;0.00;0.00;;;;;;;10.24;59.75;99937.78;5307115;26;20060;-87
2023/11/16 03:32:33;;;;;;;0.00;0.00;;;;;;;10.37;59.75;99933.91;5306843;26;20056;-87
2023/11/16 03:34:58;;;;;;;0.00;0.00;;;;;;;10.50;59.76;99937.03;5306515;26;20091;-87
2023/11/16 03:37:23;;;;;;;0.00;0.00;;;;;;;10.49;59.76;99935.31;5306567;26;20067;-87
2023/11/16 03:39:49;;;;;;;0.00;0.00;;;;;;;10.65;59.77;99931.41;5306355;26;20088;-87
2023/11/16 03:42:15;;;;;;;0.00;0.00;;;;;;;10.60;59.76;99927.19;5323689;26;32323;-88
2023/11/16 03:44:40;;;;;;;0.00;0.00;;;;;;;10.40;59.76;99941.63;5288165;26;20048;-88
2023/11/16 03:47:06;;;;;;;0.20;0.20;;;;;;;10.54;59.76;99943.00;5306532;26;20048;-86
2023/11/16 03:49:31;;;;;;;2.20;1.25;;;;;;;10.51;59.76;99940.50;5305813;26;31686;-87
2023/11/16 03:51:59;;;;;;;0.00;0.00;;;;;;;10.35;59.75;99940.91;5324415;26;28005;-87
2023/11/16 03:54:25;;;;;;;0.00;0.00;;;;;;;10.37;59.75;99948.66;5307213;26;20052;-87
2023/11/16 03:56:53;;;;;;;0.00;0.00;;;;;;;10.24;59.75;99948.19;5306823;26;20065;-88
2023/11/16 03:59:21;;;;;;;0.00;0.00;;;;;;;10.36;59.75;99940.00;5306790;26;20064;-86
2023/11/16 04:01:47;;;;;;;0.40;0.13;;;;;;;10.23;59.74;99943.88;5307010;26;20452;-87
2023/11/16 04:04:12;;;;;;;0.00;0.00;;;;;;;10.32;59.76;99940.16;5306730;26;20048;-87
2023/11/16 04:06:38;;;;;;;0.35;0.35;;;;;;;10.39;59.76;99945.13;5306383;26;20538;-87
2023/11/16 04:09:07;;;;;;;0.00;0.00;;;;;;;10.32;59.76;99950.56;5307342;26;20065;-86
2023/11/16 04:11:33;;;;;;;0.00;0.00;;;;;;;10.33;59.76;99941.84;5326182;26;20107;-86
2023/11/16 04:13:58;;;;;;;0.00;0.00;;;;;;;10.12;59.74;99948.47;5307248;26;20052;-87
2023/11/16 04:16:24;;;;;;;0.00;0.00;;;;;;;10.19;59.75;99954.38;5307493;26;20036;-87
2023/11/16 04:18:55;;;;;;;0.00;0.00;;;;;;;10.07;59.73;99951.19;5307396;26;20106;-86
2023/11/16 04:21:21;;;;;;;0.00;0.00;;;;;;;10.13;59.74;99943.22;5307530;26;20445;-87
2023/11/16 04:23:56;;;;;;;0.00;0.00;;;;;;;9.75;59.72;99958.97;5307538;26;20082;-88
2023/11/16 04:26:23;;;;;;;0.00;0.00;;;;;;;9.73;59.72;99959.03;5290850;26;20101;-87
2023/11/16 04:28:49;;;;;;;0.00;0.00;;;;;;;9.95;59.73;99955.87;5288704;26;20075;-88
2023/11/16 04:31:15;;;;;;;0.00;0.00;;;;;;;9.72;59.72;99959.91;5306904;26;20068;-87
2023/11/16 04:33:41;;;;;;;0.00;0.00;;;;;;;10.02;59.73;99958.28;5307038;26;20412;-88
2023/11/16 04:36:08;;;;;;;0.00;0.00;;;;;;;10.02;59.73;99954.81;5307298;26;20048;-88
2023/11/16 04:38:34;;;;;;;0.00;0.00;;;;;;;9.80;59.73;99959.72;5307452;26;20052;-88
2023/11/16 04:41:00;;;;;;;0.00;0.00;;;;;;;9.87;59.73;99956.06;5307211;26;20871;-87
2023/11/16 04:43:25;;;;;;;0.00;0.00;;;;;;;9.93;59.72;99955.87;5307186;26;20056;-88
2023/11/16 04:45:52;;;;;;;0.00;0.00;;;;;;;10.00;59.73;99954.00;5306453;26;31741;-86
2023/11/16 04:48:20;;;;;;;0.43;0.25;;;;;;;9.85;59.72;99963.03;5307559;26;20052;-87
2023/11/16 04:50:46;;;;;;;0.00;0.00;;;;;;;9.89;59.73;99959.47;5307439;26;20064;-87
2023/11/16 04:53:11;;;;;;;0.00;0.00;;;;;;;9.95;59.73;99958.47;5325303;26;20053;-87
2023/11/16 04:55:36;;;;;;;0.00;0.00;;;;;;;9.72;59.72;99965.13;5324900;26;28679;-87
2023/11/16 04:58:02;;;;;;;0.00;0.00;;;;;;;9.72;59.72;99970.31;5306685;26;20402;-85
2023/11/16 05:00:28;;;;;;;0.00;0.00;;;;;;;9.65;59.72;99962.69;5288445;26;20083;-86
2023/11/16 05:02:53;;;;;;;0.00;0.00;;;;;;;9.54;59.71;99969.00;5307180;26;20052;-88
2023/11/16 05:05:19;;;;;;;0.25;0.25;;;;;;;9.47;59.70;99970.06;5306098;26;36348;-87
2023/11/16 05:07:45;;;;;;;0.00;0.00;;;;;;;9.57;59.70;99972.44;5307158;26;20072;-87
2023/11/16 05:10:11;;;;;;;0.10;0.10;;;;;;;9.51;59.70;99984.69;5306944;26;20496;-86
2023/11/16 05:12:39;;;;;;;0.00;0.00;;;;;;;9.33;59.69;99992.91;5307561;26;20060;-86
2023/11/16 05:15:06;;;;;;;0.00;0.00;;;;;;;9.50;59.70;99990.78;5326254;26;20079;-87
2023/11/16 05:17:32;;;;;;;0.08;0.08;;;;;;;9.45;59.70;99997.78;5306678;26;20095;-86
2023/11/16 05:19:57;;;;;;;0.00;0.00;;;;;;;9.48;59.70;99989.97;5307282;26;20065;-86
2023/11/16 05:22:23;;;;;;;0.10;0.10;;;;;;;9.22;59.69;99997.47;5305925;26;31715;-86
2023/11/16 05:24:48;;;;;;;0.00;0.00;;;;;;;9.35;59.70;100000.66;5307022;26;20071;-87
2023/11/16 05:27:14;;;;;;;0.00;0.00;;;;;;;9.27;59.70;99995.66;5305928;26;31657;-86
2023/11/16 05:29:39;;;;;;;0.00;0.00;;;;;;;9.43;59.70;99993.53;5325518;26;20430;-86
2023/11/16 05:32:06;;;;;;;0.43;0.43;;;;;;;9.35;59.70;99987.66;5305684;26;28388;-87
2023/11/16 05:34:32;;;;;;;0.00;0.00;;;;;;;9.31;59.69;100002.47;5307102;26;20119;-87
2023/11/16 05:36:57;;;;;;;0.47;0.45;;;;;;;9.43;59.71;99993.53;5306401;26;20082;-87
2023/11/16 05:39:22;;;;;;;0.20;0.20;;;;;;;9.27;59.69;100003.44;5305982;26;35719;-88
2023/11/16 05:41:48;;;;;;;0.00;0.00;;;;;;;9.43;59.71;100006.53;5307292;26;20442;-88
2023/11/16 05:44:13;;;;;;;0.00;0.00;;;;;;;9.36;59.70;100007.56;5307751;26;20101;-88
2023/11/16 05:46:39;;;;;;;0.00;0.00;;;;;;;9.45;59.70;100005.59;5306579;26;27282;-88
2023/11/16 05:49:06;;;;;;;0.00;0.00;;;;;;;9.32;59.69;100014.56;5306804;26;23326;-88
2023/11/16 05:51:36;;;;;;;0.20;0.20;;;;;;;9.28;59.70;100020.72;5307988;26;20071;-88
2023/11/16 05:54:02;;;;;;;0.00;0.00;;;;;;;9.24;59.69;100021.69;5307756;26;20065;-88
2023/11/16 05:56:28;;;;;;;0.17;0.17;;;;;;;9.23;59.69;100023.44;5307471;26;20053;-88
2023/11/16 05:58:53;;;;;;;0.00;0.00;;;;;;;9.21;59.69;100025.19;5306315;26;21537;-88
2023/11/16 06:01:19;;;;;;;3.37;0.13;;;;;;;9.06;59.68;100022.09;5306264;26;32413;-88
2023/11/16 06:03:44;;;;;;;0.00;0.00;;;;;;;9.29;59.70;100019.00;5306780;26;29335;-88
2023/11/16 06:06:09;;;;;;;0.22;0.22;;;;;;;9.28;59.70;100017.28;5325885;26;20455;-86
2023/11/16 06:08:37;;;;;;;0.10;0.10;;;;;;;9.31;59.69;100023.25;5306649;26;28394;-88
2023/11/16 06:11:03;;;;;;;0.00;0.00;;;;;;;9.22;59.69;100024.28;5289296;26;20067;-86
2023/11/16 06:13:28;;;;;;;0.00;0.00;;;;;;;9.02;59.68;100030.84;5307347;26;20056;-87
2023/11/16 06:15:54;;;;;;;0.00;0.00;;;;;;;9.09;59.68;100032.41;5307132;26;20064;-88
2023/11/16 06:18:19;;;;;;;0.32;0.32;;;;;;;9.18;59.68;100040.00;5306627;26;28626;-87
2023/11/16 06:20:45;;;;;;;0.30;0.20;;;;;;;9.04;59.69;100037.72;5307393;26;20102;-88
2023/11/16 06:23:11;;;;;;;0.75;0.75;;;;;;;9.32;59.69;100030.16;5307088;26;20086;-87
2023/11/16 06:25:37;;;;;;;0.77;0.32;;;;;;;9.28;59.70;100022.47;5307497;26;20060;-87
2023/11/16 06:28:03;;;;;;;1.55;0.62;;;;;;;9.21;59.69;100020.00;5306846;26;20106;-85
2023/11/16 06:30:28;;;;;;;0.20;0.20;;;;;;;9.26;59.70;100009.53;5323481;26;23744;-86
2023/11/16 06:32:54;;;;;;;0.00;0.00;;;;;;;9.22;59.69;100013.06;5306854;26;20072;-85
2023/11/16 06:35:20;;;;;;;0.10;0.10;;;;;;;9.26;59.68;100009.53;5307242;26;20061;-86
2023/11/16 06:37:46;;;;;;;0.00;0.00;;;;;;;9.19;59.69;100008.78;5306485;26;30418;-88
2023/11/16 06:40:12;;;;;;;0.10;0.10;;;;;;;9.19;59.69;100008.78;5307238;26;20085;-85
2023/11/16 06:42:37;;;;;;;0.00;0.00;;;;;;;9.19;59.70;100013.97;5306520;26;20068;-86
2023/11/16 06:45:07;;;;;;;0.00;0.00;;;;;;;9.26;59.69;100024.25;5307070;26;20064;-86
2023/11/16 06:47:33;;;;;;;0.03;0.03;;;;;;;9.38;59.70;100031.75;5306656;26;20082;-86
2023/11/16 06:49:59;;;;;;;0.60;0.47;;;;;;;9.40;59.70;100032.56;5288671;26;20061;-86
2023/11/16 06:52:26;;;;;;;0.00;0.00;;;;;;;9.40;59.70;100025.62;5306621;26;20386;-85
2023/11/16 06:54:52;;;;;;;0.47;0.28;;;;;;;9.55;59.71;100032.22;5306551;26;20087;-86
2023/11/16 06:57:17;;;;;;;0.52;0.52;;;;;;;9.54;59.70;100036.59;5306505;26;20398;-86
2023/11/16 06:59:44;;;;;;;0.00;0.00;;;;;;;9.73;59.72;100030.97;5305645;26;29953;-86
2023/11/16 07:02:10;;;;;;;0.00;0.00;;;;;;;9.77;59.72;100030.84;5306277;26;20424;-86
2023/11/16 07:04:36;;;;;;;0.00;0.00;;;;;;;9.68;59.72;100032.78;5306398;26;20075;-85
2023/11/16 07:07:04;;;;;;;0.00;0.00;;;;;;;9.87;59.73;100036.66;5306282;26;20056;-86
2023/11/16 07:09:31;;;;;;;0.08;0.08;;;;;;;9.94;59.73;100042.59;5287919;26;20412;-86
2023/11/16 07:11:57;;;;;;;0.00;0.00;;;;;;;9.95;59.73;100039.09;5288455;26;20067;-86
2023/11/16 07:14:23;;;;;;;0.10;0.10;;;;;;;9.92;59.72;100042.59;5306236;26;20052;-87
2023/11/16 07:16:48;;;;;;;0.00;0.00;;;;;;;10.13;59.74;100036.84;5324669;26;20535;-86
2023/11/16 07:19:14;;;;;;;0.32;0.32;;;;;;;10.10;59.74;100034.34;5305251;26;31619;-86
2023/11/16 07:21:39;;;;;;;0.00;0.00;;;;;;;10.26;59.75;100034.84;5304857;26;31051;-86
2023/11/16 07:24:05;;;;;;;0.32;0.32;;;;;;;10.40;59.75;100039.66;5306025;26;20079;-86
2023/11/16 07:26:31;;;;;;;0.00;0.00;;;;;;;10.36;59.75;100036.28;5305964;26;20406;-86
2023/11/16 07:28:57;;;;;;;0.00;0.00;;;;;;;10.40;59.76;100044.88;5306129;26;20077;-86
2023/11/16 07:31:24;;;;;;;0.00;0.00;;;;;;;10.30;59.75;100040.81;5305701;26;20326;-86
2023/11/16 07:33:54;;;;;;;0.00;0.00;;;;;;;10.38;59.75;100044.06;5305957;26;20469;-86
2023/11/16 07:36:26;;;;;;;0.00;0.00;;;;;;;10.45;59.76;100048.22;5306454;26;20135;-86
2023/11/16 07:38:55;;;;;;;0.00;0.00;;;;;;;10.44;59.75;100046.50;5289559;26;20485;-86
2023/11/16 07:41:21;;;;;;;0.00;0.00;;;;;;;10.48;59.76;100048.13;5289450;26;20048;-86
2023/11/16 07:43:46;;;;;;;0.00;0.00;;;;;;;10.65;59.77;100047.69;5308381;26;20529;-86
2023/11/16 07:46:12;;;;;;;0.00;0.00;;;;;;;10.74;59.77;100042.22;5308290;26;20074;-86
2023/11/16 07:48:39;;;;;;;0.00;0.00;;;;;;;10.72;59.77;100051.81;5326921;26;20071;-87
2023/11/16 07:51:07;;;;;;;0.10;0.10;;;;;;;10.73;59.77;100051.78;5308678;26;20053;-86
2023/11/16 07:53:32;;;;;;;0.00;0.00;;;;;;;10.88;59.78;100050.47;5290701;26;20060;-86
2023/11/16 07:56:05;;;;;;;0.00;0.00;;;;;;;10.91;59.78;100047.81;5326721;26;20059;-86
2023/11/16 07:58:31;;;;;;;0.00;0.00;;;;;;;10.95;59.79;100039.00;5309181;26;20062;-86
2023/11/16 08:01:04;;;;;;;0.00;0.00;;;;;;;11.00;59.79;100037.13;5308373;26;20116;-86
2023/11/16 08:03:42;;;;;;;0.28;0.28;;;;;;;11.22;59.79;100039.94;5327908;26;20060;-86
2023/11/16 08:06:12;;;;;;;0.00;0.00;;;;;;;11.18;59.80;100035.72;5309987;26;20074;-86
2023/11/16 08:08:39;;;;;;;0.00;0.00;;;;;;;11.24;59.80;100040.75;5308935;26;20766;-86
2023/11/16 08:11:08;;;;;;;9.65;1.48;;;;;;;11.25;59.80;100033.78;5290450;26;20114;-86
2023/11/16 08:13:35;;;;;;;0.00;0.00;;;;;;;11.42;59.81;100036.72;5327288;26;20052;-86
2023/11/16 08:16:04;;;;;;;0.00;0.00;;;;;;;11.43;59.81;100034.97;5308535;26;20127;-86
2023/11/16 08:18:29;;;;;;;0.00;0.00;;;;;;;11.44;59.81;100034.94;5327128;26;20436;-86
2023/11/16 08:20:55;;;;;;;0.00;0.00;;;;;;;11.62;59.82;100026.53;5308211;26;20045;-86
2023/11/16 08:23:22;;;;;;;0.00;0.00;;;;;;;11.63;59.82;100033.47;5308049;26;20056;-85
2023/11/16 08:25:50;;;;;;;0.10;0.10;;;;;;;11.69;59.82;100035.88;5308469;26;20072;-86
2023/11/16 08:28:16;;;;;;;0.00;0.00;;;;;;;11.62;59.82;100033.50;5308483;26;20079;-86
2023/11/16 08:30:43;;;;;;;0.00;0.00;;;;;;;11.80;59.83;100051.19;5300544;27;20046;-86
2023/11/16 08:33:08;;;;;;;0.00;0.00;;;;;;;11.84;59.84;100047.59;5282698;27;20077;-86
2023/11/16 08:35:37;;;;;;;0.00;0.00;;;;;;;11.85;59.84;100051.91;5300532;27;20099;-86
2023/11/16 08:38:02;;;;;;;0.00;0.00;;;;;;;11.95;59.83;100050.69;5301091;27;20421;-86
2023/11/16 08:40:29;;;;;;;0.00;0.00;;;;;;;11.98;59.85;100050.59;5300586;27;20095;-86
2023/11/16 08:42:57;;;;;;;0.00;0.00;;;;;;;12.24;59.85;100046.25;5300728;27;20060;-86
2023/11/16 08:45:24;;;;;;;0.00;0.00;;;;;;;12.40;59.86;100041.38;5300858;27;20095;-86
2023/11/16 08:47:59;;;;;;;0.00;0.00;;;;;;;12.37;59.86;100042.34;5300922;27;20049;-86
2023/11/16 08:50:24;;;;;;;0.00;0.00;;;;;;;12.43;59.86;100047.34;5283743;27;20060;-86
2023/11/16 08:52:51;;;;;;;0.00;0.00;;;;;;;12.51;59.87;100037.47;5280724;27;22139;-86
2023/11/16 08:55:21;;;;;;;0.00;0.00;;;;;;;12.58;59.88;100032.91;5299377;27;20064;-86
2023/11/16 08:57:47;;;;;;;0.00;0.00;;;;;;;12.70;59.88;100031.59;5299363;27;20057;-86
2023/11/16 09:00:30;;;;;;;0.00;0.00;;;;;;;12.63;59.87;100027.50;5299405;27;20049;-86
2023/11/16 09:03:00;;;;;;;0.00;0.00;;;;;;;12.68;59.88;100018.59;5301845;27;20436;-86
2023/11/16 09:05:28;;;;;;;1.70;0.35;;;;;;;12.78;59.88;100024.34;5299874;27;20068;-86
2023/11/16 09:07:53;;;;;;;0.00;0.00;;;;;;;12.75;59.89;100030.50;5299610;27;20084;-86
2023/11/16 09:10:20;;;;;;;0.90;0.47;;;;;;;12.98;59.90;100034.88;5299113;27;20080;-86
2023/11/16 09:12:47;;;;;;;0.00;0.00;;;;;;;12.92;59.89;100029.91;5299446;27;20092;-86
2023/11/16 09:15:16;;;;;;;0.00;0.00;;;;;;;12.98;59.89;100029.66;5299351;27;20091;-86
2023/11/16 09:17:46;;;;;;;0.00;0.00;;;;;;;13.11;59.89;100024.84;5299657;27;20057;-86
2023/11/16 09:20:18;;;;;;;0.00;0.00;;;;;;;13.15;59.90;100022.03;5281477;27;20049;-86
2023/11/16 09:22:44;;;;;;;0.00;0.00;;;;;;;13.28;59.91;100026.84;5281437;27;20124;-86
2023/11/16 09:25:15;;;;;;;0.00;0.00;;;;;;;13.29;59.91;100026.78;5280864;27;20338;-85
2023/11/16 09:27:50;;;;;;;0.00;0.00;;;;;;;13.26;59.91;100023.44;5299886;27;20053;-86
2023/11/16 09:30:22;;;;;;;0.08;0.08;;;;;;;13.33;59.91;100017.06;5304909;26;20048;-86
2023/11/16 09:32:47;;;;;;;0.00;0.00;;;;;;;13.50;59.93;100018.12;5303153;27;20060;-86
2023/11/16 09:35:16;;;;;;;0.00;0.00;;;;;;;13.48;59.91;100016.44;5284288;27;20103;-86
2023/11/16 09:37:47;;;;;;;0.00;0.00;;;;;;;13.52;59.93;100007.59;5285287;27;20414;-86
2023/11/16 09:40:13;;;;;;;0.00;0.00;;;;;;;13.69;59.93;100005.12;5284926;27;20083;-86
2023/11/16 09:42:39;;;;;;;0.00;0.00;;;;;;;13.77;59.94;99984.75;5302780;27;20155;-87
2023/11/16 09:45:05;;;;;;;0.00;0.00;;;;;;;13.85;59.94;99988.81;5303019;27;20056;-87
2023/11/16 09:47:31;;;;;;;0.00;0.00;;;;;;;13.88;59.95;99986.06;5284397;27;20079;-87
2023/11/16 09:49:56;;;;;;;0.00;0.00;;;;;;;14.12;59.96;99975.41;5284565;27;20102;-86
2023/11/16 09:52:23;;;;;;;0.00;0.00;;;;;;;14.11;59.96;99980.69;5284410;27;20410;-87
2023/11/16 09:54:50;;;;;;;0.10;0.10;;;;;;;14.14;59.96;99973.56;5284647;27;20061;-86
2023/11/16 09:57:19;;;;;;;0.00;0.00;;;;;;;14.03;59.96;99974.97;5284616;27;20054;-86
2023/11/16 09:59:45;;;;;;;0.00;0.00;;;;;;;13.96;59.95;99973.50;5285401;27;20118;-86
2023/11/16 10:02:13;;;;;;;0.00;0.00;;;;;;;14.24;59.96;99967.94;5284543;27;20456;-87
2023/11/16 10:04:43;;;;;;;0.00;0.00;;;;;;;14.35;59.97;99977.03;5284570;27;20041;-86
2023/11/16 10:07:20;;;;;;;0.00;0.00;;;;;;;14.53;59.98;99972.78;5285211;27;20087;-87
2023/11/16 10:09:46;;;;;;;0.00;0.00;;;;;;;14.64;59.99;99964.44;5286570;27;20449;-86
2023/11/16 10:12:11;;;;;;;0.00;0.00;;;;;;;14.68;59.98;99955.53;5302786;27;20102;-86
2023/11/16 10:14:41;;;;;;;0.00;0.00;;;;;;;14.78;60.00;99959.41;5284233;27;20056;-86
2023/11/16 10:17:07;;;;;;;0.00;0.00;;;;;;;14.88;60.00;99958.06;5284782;27;20087;-86
2023/11/16 10:19:32;;;;;;;0.00;0.00;;;;;;;14.70;59.98;99951.91;5284294;27;20076;-86
2023/11/16 10:21:57;;;;;;;0.00;0.00;;;;;;;14.78;60.00;99954.19;5283253;27;34149;-87
2023/11/16 10:24:23;;;;;;;0.00;0.00;;;;;;;14.89;60.00;99946.66;5302053;27;20646;-86
2023/11/16 10:26:52;;;;;;;0.00;0.00;;;;;;;14.77;59.99;99952.47;5284212;27;20076;-86
2023/11/16 10:29:17;;;;;;;0.00;0.00;;;;;;;14.93;60.00;99948.25;5284588;27;20049;-86
2023/11/16 10:31:46;;;;;;;0.00;0.00;;;;;;;14.93;60.00;99936.91;5298226;27;20081;-87
2023/11/16 10:34:12;;;;;;;0.00;0.00;;;;;;;15.07;60.00;99939.72;5280938;27;20061;-86
2023/11/16 10:36:39;;;;;;;0.00;0.00;;;;;;;14.95;60.00;99929.81;5262732;27;20422;-86
2023/11/16 10:39:11;;;;;;;2.20;1.37;;;;;;;15.01;60.00;99925.13;5280694;27;20114;-86
2023/11/16 10:41:37;;;;;;;0.00;0.00;;;;;;;15.10;60.01;99933.47;5281872;27;20467;-86
2023/11/16 10:44:03;;;;;;;0.00;0.00;;;;;;;15.20;60.01;99925.09;5262845;27;20112;-86
2023/11/16 10:46:29;;;;;;;0.00;0.00;;;;;;;15.18;60.02;99928.72;5262761;27;20062;-87
2023/11/16 10:48:55;;;;;;;0.00;0.00;;;;;;;15.12;60.01;99921.97;5280678;27;20471;-87
2023/11/16 10:51:22;;;;;;;0.00;0.00;;;;;;;15.20;60.01;99917.25;5280535;27;20077;-86
2023/11/16 10:53:48;;;;;;;0.10;0.10;;;;;;;15.26;60.02;99916.94;5262933;27;20144;-87
2023/11/16 10:56:13;;;;;;;0.00;0.00;;;;;;;15.40;60.03;99913.66;5262426;27;20046;-86
2023/11/16 10:58:40;;;;;;;0.00;0.00;;;;;;;15.45;60.03;99910.78;5279998;27;24303;-86
2023/11/16 11:01:08;;;;;;;0.00;0.00;;;;;;;15.36;60.02;99907.69;5280761;27;20422;-86
2023/11/16 11:03:43;;;;;;;0.20;0.20;;;;;;;15.41;60.03;99909.25;5263282;27;20064;-86
2023/11/16 11:06:17;;;;;;;0.00;0.00;;;;;;;15.36;60.02;99912.06;5263916;27;20120;-87
2023/11/16 11:08:44;;;;;;;0.00;0.00;;;;;;;15.42;60.03;99914.44;5281230;27;20067;-86
2023/11/16 11:11:10;;;;;;;0.10;0.10;;;;;;;15.49;60.04;99907.09;5280641;27;20109;-87
2023/11/16 11:16:27;;;;;;;0.10;0.10;;;;;;;15.63;60.04;99910.78;5283253;27;20068;-86
2023/11/16 11:18:53;;;;;;;0.00;0.00;;;;;;;15.69;60.04;99906.97;5262075;27;20059;-87
2023/11/16 11:21:20;;;;;;;0.00;0.00;;;;;;;15.62;60.03;99900.34;5280537;27;20073;-86
2023/11/16 11:24:05;;;;;;;0.10;0.10;;;;;;;15.78;60.04;99882.03;5280462;27;20065;-87
2023/11/16 11:26:43;;;;;;;0.43;0.13;;;;;;;15.58;60.03;99873.38;5281433;27;20054;-86
2023/11/16 11:29:10;;;;;;;0.00;0.00;;;;;;;15.74;60.04;99876.09;5263248;27;20071;-86
2023/11/16 11:31:50;;;;;;;0.00;0.00;;;;;;;15.81;60.05;99881.88;5279277;27;20515;-86
2023/11/16 11:34:16;;;;;;;0.00;0.00;;;;;;;15.60;60.03;99878.56;5302932;27;20091;-86